Stations météo

réclame
Mon MeteoGroup
Helgoland, Allemagne (10015): Température de l'air & dewpoint: 13.01.2018 23:00:00 - 19.01.2018 23:00:00 (CET)Helgoland, Allemagne (10015): Température de l'air 5cm: 13.01.2018 23:00:00 - 19.01.2018 23:00:00 (CET)Helgoland, Allemagne (10015): Vitesse du vent & gusts: 13.01.2018 23:00:00 - 19.01.2018 23:00:00 (CET)Helgoland, Allemagne (10015): Direction du vent: 13.01.2018 23:00:00 - 19.01.2018 23:00:00 (CET)Helgoland, Allemagne (10015): reduced air pressure: 13.01.2018 23:00:00 - 19.01.2018 23:00:00 (CET)Helgoland, Allemagne (10015): Ensoleillement: 13.01.2018 23:00:00 - 19.01.2018 23:00:00 (CET)Helgoland, Allemagne (10015): Quantités de précipitations: 13.01.2018 23:00:00 - 19.01.2018 23:00:00 (CET)
Date & Time tt [°C] td [°C] tt 5cm [°C] ff [km/h] ff [knt] fx [km/h] fx [knt] dd ppp [hPa] sd [min] rr [mm]
19.01.2018 23:00:00 3,5 2,0 2,2 29 16 54 29 SW 1004,1 0 0,6
19.01.2018 22:00:00 3,6 0,2 2,6 41 22 52 28 W 1004,0 0 0,1
19.01.2018 21:00:00 3,7 1,5 2,2 23 12 40 22 SW 1004,0 0 3,9
19.01.2018 20:00:00 3,0 0,9 1,9 28 15 45 24 W 1004,1 0 0,9
19.01.2018 19:00:00 3,8 1,0 2,7 30 16 53 28 W 1003,9 0 0,2
19.01.2018 18:00:00 3,4 1,4 2,7 27 15 46 25 WSW 1004,0 0 0,4
19.01.2018 17:00:00 4,9 1,7 3,7 27 15 45 24 W 1003,7 0 0,3
19.01.2018 16:00:00 4,1 0,9 2,8 24 13 45 25 WNW 1003,6 0 0,0
19.01.2018 15:00:00 4,1 0,5 3,0 34 19 44 24 W 1003,3 0 0,2
19.01.2018 14:00:00 4,5 1,5 3,8 22 12 33 18 W 1003,1 12 0,0
19.01.2018 13:00:00 3,7 1,7 3,2 22 12 31 17 W 1003,1 0 3,1
19.01.2018 12:00:00 3,8 2,0 3,2 29 16 39 21 SW 1003,2 6 0,1
19.01.2018 11:00:00 4,0 1,4 2,9 26 14 41 22 SW 1003,0 0 0,4
19.01.2018 10:00:00 3,9 1,1 3,2 32 17 46 25 W 1002,5 0 0,1
19.01.2018 09:00:00 4,5 0,6 3,0 27 14 37 20 WSW 1001,8 0 0,0
19.01.2018 08:00:00 4,6 3,2 4,0 23 13 31 17 WSW 1001,0 0 0,0
19.01.2018 07:00:00 4,7 0,8 2,7 26 14 45 25 W 1000,8 0 0,0
19.01.2018 06:00:00 5,0 1,2 3,6 22 12 30 16 W 1000,3 0 0,0
19.01.2018 05:00:00 4,7 1,2 3,0 22 12 32 18 W 999,9 0 0,0
19.01.2018 04:00:00 5,0 1,1 3,0 22 12 34 18 WNW 999,6 0 0,0
19.01.2018 03:00:00 4,4 1,8 2,6 18 10 25 14 W 999,4 0 0,0
19.01.2018 02:00:00 3,3 1,1 1,5 19 10 42 23 NW 999,2 0 0,0
19.01.2018 01:00:00 4,4 1,8 3,2 23 13 31 17 W 998,8 0 0,0
19.01.2018 00:00:00 3,8 1,4 1,9 18 10 42 23 W 998,4 0 0,2
18.01.2018 23:00:00 4,0 0,4 2,6 29 16 40 21 NW 998,1 0 0,0
18.01.2018 22:00:00 4,3 1,4 2,3 22 12 33 18 W 997,5 0 0,0
18.01.2018 21:00:00 3,6 0,6 2,4 30 16 46 25 NW 997,2 0 0,0
18.01.2018 20:00:00 4,5 2,1 3,0 29 16 36 19 WNW 996,1 0 0,0
18.01.2018 19:00:00 3,8 1,6 2,7 14 8 28 15 NW 995,5 0 0,5
18.01.2018 18:00:00 1,9 0,8 1,4 31 17 56 31 NW 994,7 0 1,0
18.01.2018 17:00:00 3,4 1,6 2,7 22 12 30 16 NW 993,6 0 0,1
18.01.2018 16:00:00 3,3 1,1 2,9 21 11 46 25 NW 992,2 0 0,0
18.01.2018 15:00:00 3,2 1,2 2,7 43 23 58 31 NNW 990,3 0 0,0
18.01.2018 14:00:00 2,9 1,4 2,6 48 26 63 34 N 986,9 0 0,3
18.01.2018 13:00:00 2,2 1,2 2,0 53 28 69 37 NNE 983,0 0 0,4
18.01.2018 12:00:00 1,3 0,7 1,1 52 28 62 33 ENE 980,2 0 2,7
18.01.2018 11:00:00 1,5 1,0 1,0 55 30 70 38 E 979,5 0 2,5
18.01.2018 10:00:00 1,2 1,0 0,7 54 29 68 37 ESE 981,3 0 3,7
18.01.2018 09:00:00 1,6 1,0 1,2 53 29 61 33 SE 983,1 0 2,2
18.01.2018 08:00:00 2,2 1,1 1,7 46 25 56 30 SSE 986,0 0 1,4
18.01.2018 07:00:00 3,3 1,5 2,6 42 23 54 29 S 989,0 0 0,0
18.01.2018 06:00:00 3,8 1,7 3,4 44 24 52 28 SSW 991,1 0 0,0
18.01.2018 05:00:00 4,6 2,1 3,7 42 23 55 30 SW 993,3 0 0,0
18.01.2018 04:00:00 4,9 2,5 3,7 39 21 51 27 SW 994,4 0 0,0
18.01.2018 03:00:00 4,6 1,0 3,0 33 18 62 33 WSW 996,2 0 0,1
18.01.2018 02:00:00 4,8 1,7 4,2 36 19 50 27 WSW 996,8 0 0,0
18.01.2018 01:00:00 5,2 0,7 3,4 45 24 64 35 W 997,7 0 0,1
18.01.2018 00:00:00 5,4 1,7 4,0 40 21 53 28 W 997,7 0 0,0
17.01.2018 23:00:00 5,4 1,7 4,1 37 20 58 32 W 997,6 0 0,0
17.01.2018 22:00:00 5,5 1,6 4,0 43 23 54 29 W 997,5 0 0,0
17.01.2018 21:00:00 5,1 1,3 4,2 44 24 63 34 W 997,3 0 0,0
17.01.2018 20:00:00 5,0 0,8 4,1 40 22 60 32 W 997,0 0 0,0
17.01.2018 19:00:00 4,6 0,6 3,7 51 28 66 35 WNW 996,5 0 0,0
17.01.2018 18:00:00 4,0 1,0 3,0 48 26 66 36 WNW 995,4 0 0,0
17.01.2018 17:00:00 4,8 0,0 3,7 52 28 65 35 WNW 994,8 0 0,0
17.01.2018 16:00:00 4,5 0,7 3,2 36 19 49 26 WNW 994,0 10 0,0
17.01.2018 15:00:00 4,9 -0,6 3,9 40 22 51 28 W 992,9 43 0,0
17.01.2018 14:00:00 5,1 1,0 4,0 33 18 43 23 W 992,4 15 0,0
17.01.2018 13:00:00 3,4 0,5 2,7 19 10 59 32 W 991,9 0 0,4
17.01.2018 12:00:00 3,5 0,8 3,0 27 15 56 31 NW 991,9 0 0,0
17.01.2018 11:00:00 3,8 0,8 3,1 46 25 63 34 WNW 990,8 3 0,4
17.01.2018 10:00:00 4,9 0,3 4,0 42 23 60 32 W 989,7 0 0,1
17.01.2018 09:00:00 4,9 -0,4 3,5 42 23 52 28 W 988,9 0 0,0
17.01.2018 08:00:00 4,2 0,0 2,7 45 24 55 30 W 987,8 0 0,1
17.01.2018 07:00:00 4,4 0,1 3,2 29 16 46 25 W 987,1 0 0,0
17.01.2018 06:00:00 3,3 0,2 2,2 24 13 35 19 W 986,7 0 0,0
17.01.2018 05:00:00 1,6 0,7 1,2 9 5 29 16 NW 986,3 0 0,8
17.01.2018 04:00:00 2,5 1,0 1,7 18 10 49 26 W 986,2 0 0,3
17.01.2018 03:00:00 2,7 1,5 2,3 40 22 54 29 SW 986,3 0 0,1
17.01.2018 02:00:00 4,2 0,8 3,3 37 20 51 28 SW 985,9 0 0,1
17.01.2018 01:00:00 4,8 1,2 3,0 26 14 65 35 WSW 986,3 0 0,0
17.01.2018 00:00:00 4,5 0,1 3,0 43 23 55 30 WSW 986,5 0 0,1
16.01.2018 23:00:00 4,8 1,8 4,0 21 11 46 25 W 986,6 0 0,0
16.01.2018 22:00:00 4,3 0,2 3,0 44 24 61 33 WSW 986,6 0 0,3
16.01.2018 21:00:00 3,8 0,8 2,6 41 22 63 34 W 986,8 0 0,3
16.01.2018 20:00:00 5,1 1,3 4,0 39 21 56 30 W 986,6 0 0,0
16.01.2018 19:00:00 5,3 1,2 4,1 39 21 51 27 W 986,4 0 0,0
16.01.2018 18:00:00 4,9 0,6 3,7 37 20 62 33 W 986,6 0 1,0
16.01.2018 17:00:00 5,3 1,3 4,2 36 20 63 34 W 986,5 0 0,0
16.01.2018 16:00:00 4,9 1,0 3,8 43 23 59 32 W 985,9 4 0,0
16.01.2018 15:00:00 5,4 1,4 4,2 45 24 54 29 W 985,4 0 1,2
16.01.2018 14:00:00 4,8 1,0 3,7 49 27 69 37 WNW 985,1 3 0,0
16.01.2018 13:00:00 4,7 1,5 3,9 32 17 43 23 W 985,0 10 0,0
16.01.2018 12:00:00 5,1 1,6 4,0 35 19 46 25 W 984,9 16 0,0
16.01.2018 11:00:00 4,5 1,9 3,2 32 17 51 28 W 984,7 1 0,5
16.01.2018 10:00:00 4,9 1,8 3,9 41 22 63 34 W 984,5 0 0,2
16.01.2018 09:00:00 5,1 1,9 3,9 39 21 51 28 WSW 984,2 0 0,0
16.01.2018 08:00:00 5,5 2,2 4,2 37 20 57 31 WSW 984,1 0 0,3
16.01.2018 07:00:00 5,8 2,5 4,5 37 20 51 28 WSW 983,9 0 0,1
16.01.2018 06:00:00 6,2 3,2 4,9 40 22 60 33 WSW 984,0 0 0,0
16.01.2018 05:00:00 5,2 3,1 4,4 25 14 52 28 W 984,2 0 0,2
16.01.2018 04:00:00 5,6 2,3 4,5 42 23 73 40 WSW 984,8 0 0,0
16.01.2018 03:00:00 6,5 3,3 5,7 42 23 65 35 WSW 984,6 0 0,0
16.01.2018 02:00:00 6,3 4,6 5,7 45 24 59 32 WSW 984,3 0 0,0
16.01.2018 01:00:00 6,1 4,4 5,7 47 25 65 35 W 983,3 0 0,1
16.01.2018 00:00:00 5,6 4,7 5,1 51 27 67 36 SSW 982,4 0 1,8
15.01.2018 23:00:00 4,7 3,2 4,0 53 29 69 37 S 983,6 0 0,5
15.01.2018 22:00:00 4,9 3,5 4,4 52 28 64 34 S 985,4 0 0,6
15.01.2018 21:00:00 5,0 3,9 4,5 51 28 65 35 S 987,2 0 1,1
15.01.2018 20:00:00 5,0 4,0 4,6 53 28 70 38 S 989,1 0 0,1
15.01.2018 19:00:00 5,1 3,9 4,6 53 28 72 39 S 990,6 0 0,3
15.01.2018 18:00:00 4,9 3,6 4,4 55 30 69 37 S 992,4 0 0,3
15.01.2018 17:00:00 5,0 3,3 4,3 53 28 68 37 S 994,2 0 0,8
15.01.2018 16:00:00 4,6 2,7 3,9 57 31 71 38 SSE 995,6 0 0,3
15.01.2018 15:00:00 4,4 2,5 3,8 54 29 66 35 S 997,8 0 0,1
15.01.2018 14:00:00 4,4 2,3 4,2 53 29 71 39 S 999,8 0 0,0
15.01.2018 13:00:00 4,0 2,0 3,5 53 29 67 36 S 1001,5 0 0,1
15.01.2018 12:00:00 4,0 1,8 3,4 49 27 63 34 S 1003,7 0 0,0
15.01.2018 11:00:00 3,5 0,7 3,3 50 27 64 35 S 1005,5 0 0,0
15.01.2018 10:00:00 3,3 1,1 3,1 50 27 62 33 S 1006,5 0 0,0
15.01.2018 09:00:00 2,8 0,3 2,6 48 26 61 33 S 1007,9 0 0,0
15.01.2018 08:00:00 2,7 0,1 2,5 49 27 59 32 S 1009,0 0 0,0
15.01.2018 07:00:00 2,4 -0,6 2,2 49 27 61 33 S 1010,0 0 0,0
15.01.2018 06:00:00 2,3 -0,3 2,1 50 27 65 35 S 1011,0 0 0,0
15.01.2018 05:00:00 2,2 -0,6 1,9 50 27 63 34 S 1012,4 0 0,0
15.01.2018 04:00:00 2,0 -0,9 1,6 50 27 65 35 S 1014,0 0 0,0
15.01.2018 03:00:00 1,8 -0,8 0,9 51 28 64 35 SSE 1015,0 0 0,0
15.01.2018 02:00:00 1,7 -1,1 0,7 51 28 64 35 SSE 1016,1 0 0,0
15.01.2018 01:00:00 1,8 -1,0 0,8 55 30 67 36 SSE 1016,8 0 0,0
15.01.2018 00:00:00 2,2 -1,0 1,0 54 29 64 35 SSE 1018,2 0 0,0
14.01.2018 23:00:00 1,4 -1,1 0,4 52 28 64 35 SSE 1019,2 0 0,0
14.01.2018 22:00:00 1,5 -1,1 0,3 52 28 65 35 SSE 1020,0 0 0,0
14.01.2018 21:00:00 1,2 -1,6 0,3 52 28 61 33 SSE 1021,2 0 0,0
14.01.2018 20:00:00 1,6 -1,1 0,4 50 27 63 34 SSE 1021,7 0 0,0
14.01.2018 19:00:00 1,6 -1,5 0,5 53 28 62 33 SSE 1021,6 0 0,0
14.01.2018 18:00:00 1,7 -1,6 0,4 47 26 57 31 SE 1022,5 0 0,0
14.01.2018 17:00:00 1,6 -1,9 0,4 46 25 54 29 SE 1022,8 0 0,0
14.01.2018 16:00:00 1,6 -1,7 0,7 41 22 53 28 SE 1023,3 17 0,0
14.01.2018 15:00:00 1,4 -2,1 1,4 43 23 56 30 SE 1023,1 15 0,0
14.01.2018 14:00:00 1,3 -3,0 1,3 41 22 58 31 SSE 1024,0 0 0,0
14.01.2018 13:00:00 1,3 -3,6 1,4 39 21 56 30 SSE 1024,8 0 0,0
14.01.2018 12:00:00 1,4 -3,5 1,3 43 23 56 31 SSE 1025,2 0 0,0
14.01.2018 11:00:00 0,9 -4,2 0,8 38 20 58 31 SSE 1026,0 0 0,0
14.01.2018 10:00:00 0,6 -4,6 0,4 41 22 56 30 SE 1026,2 0 0,0
14.01.2018 09:00:00 0,7 -3,9 0,4 41 22 55 30 SE 1026,2 0 0,0
14.01.2018 08:00:00 0,7 -4,1 0,4 41 22 54 29 SE 1026,5 0 0,0
14.01.2018 07:00:00 0,8 -3,8 0,5 46 25 58 31 SE 1026,8 0 0,0
14.01.2018 06:00:00 1,2 -3,0 0,9 49 26 59 32 SE 1026,6 0 0,0
14.01.2018 05:00:00 1,4 -3,0 1,1 55 30 64 35 SE 1026,5 0 0,0
14.01.2018 04:00:00 1,7 -1,9 1,4 50 27 58 32 SE 1026,8 0 0,0
14.01.2018 03:00:00 1,2 -2,5 0,9 45 25 56 30 SE 1027,2 0 0,0
14.01.2018 02:00:00 1,1 -2,5 0,9 45 24 57 31 SE 1027,6 0 0,0
14.01.2018 01:00:00 1,2 -2,5 1,0 47 26 58 31 SE 1027,7 0 0,0
14.01.2018 00:00:00 1,5 -1,9 1,3 46 25 57 31 SE 1027,8 0 0,0
13.01.2018 23:00:00 1,7 -1,5 1,5 47 26 55 30 SE 1028,0 0 0,0

tt = Température de l'air
td = dewpoint
tt 5cm = Température de l'air 5cm
ff = Vitesse du vent
fx = gusts
dd = Direction du vent
ppp = reduced air pressure
sd = Ensoleillement
rr = Quantités de précipitations

stations d'obs. à proximité